Time;durP1;ratioP1;P1;durP2;ratioP2;P2;SDS_P1;SDS_P2;PMS_P1;PMS_P2;Temp;Humidity;BMP_temperature;BMP_pressure;BME280_temperature;BME280_humidity;BME280_pressure;Samples;Min_cycle;Max_cycle;Signal;HPM_P1;HPM_P2
2022/08/25 00:00:43;;;;;;;6.68;5.70;;;20.40;99.90;;;;;;5111241;27;20039;-69
2022/08/25 00:03:11;;;;;;;8.38;5.50;;;20.40;99.90;;;;;;5113565;27;20115;-66
2022/08/25 00:05:36;;;;;;;5.93;5.28;;;20.40;99.90;;;;;;5111321;27;20043;-66
2022/08/25 00:08:04;;;;;;;8.18;5.65;;;20.40;99.90;;;;;;5095035;28;20418;-70
2022/08/25 00:10:32;;;;;;;6.05;5.45;;;20.30;99.90;;;;;;5111748;27;20044;-68
2022/08/25 00:12:58;;;;;;;6.40;5.65;;;20.30;99.90;;;;;;5110571;28;20509;-70
2022/08/25 00:15:24;;;;;;;6.15;5.55;;;20.30;99.90;;;;;;5110269;27;20035;-67
2022/08/25 00:17:50;;;;;;;7.45;5.65;;;20.30;99.90;;;;;;5100760;28;20074;-68
2022/08/25 00:20:16;;;;;;;7.65;5.50;;;20.20;99.90;;;;;;5111983;27;20122;-70
2022/08/25 00:22:42;;;;;;;9.10;5.78;;;20.20;99.90;;;;;;5089915;28;20090;-66
2022/08/25 00:25:08;;;;;;;6.13;5.53;;;20.20;99.90;;;;;;5109503;28;20063;-66
2022/08/25 00:27:34;;;;;;;6.63;5.53;;;20.20;99.90;;;;;;5109722;27;20035;-67
2022/08/25 00:30:00;;;;;;;6.40;5.53;;;20.20;99.90;;;;;;5111199;27;20037;-70
2022/08/25 00:32:26;;;;;;;6.68;4.93;;;20.20;99.90;;;;;;5112990;27;20051;-67
2022/08/25 00:34:52;;;;;;;9.90;5.15;;;20.20;99.90;;;;;;5130132;27;20446;-68
2022/08/25 00:37:18;;;;;;;6.80;4.70;;;20.30;99.90;;;;;;5111548;27;20596;-68
2022/08/25 00:39:44;;;;;;;7.80;4.35;;;20.30;99.90;;;;;;5108873;28;20567;-67
2022/08/25 00:42:11;;;;;;;8.63;4.90;;;20.30;99.90;;;;;;5115028;27;20739;-67
2022/08/25 00:44:38;;;;;;;5.65;4.32;;;20.40;99.90;;;;;;5111044;28;20036;-70
2022/08/25 00:47:05;;;;;;;5.97;4.32;;;20.40;99.90;;;;;;5111310;28;20028;-71
2022/08/25 00:49:53;;;;;;;7.22;4.40;;;20.40;99.90;;;;;;5117601;27;20075;-69
2022/08/25 00:52:26;;;;;;;4.38;3.97;;;20.40;99.90;;;;;;5099244;27;20035;-69
2022/08/25 00:54:57;;;;;;;5.28;4.00;;;20.50;99.90;;;;;;5133242;27;20035;-70
2022/08/25 00:57:29;;;;;;;5.05;4.00;;;20.50;99.90;;;;;;5122038;27;20104;-68
2022/08/25 00:59:56;;;;;;;7.35;3.95;;;20.50;99.90;;;;;;5119885;27;20169;-67
2022/08/25 01:02:22;;;;;;;6.95;4.40;;;20.50;99.90;;;;;;5111857;27;20493;-66
2022/08/25 01:04:48;;;;;;;5.72;3.80;;;20.50;99.90;;;;;;5115008;27;20048;-67
2022/08/25 01:07:15;;;;;;;6.90;4.00;;;20.50;99.90;;;;;;5127309;27;20076;-69
2022/08/25 01:09:43;;;;;;;4.15;3.72;;;20.50;99.90;;;;;;5125018;27;20505;-67
2022/08/25 01:12:09;;;;;;;5.55;3.70;;;20.50;99.90;;;;;;5120750;27;20100;-70
2022/08/25 01:14:36;;;;;;;5.88;3.40;;;20.50;99.90;;;;;;5097373;28;20054;-69
2022/08/25 01:17:02;;;;;;;5.32;3.50;;;20.50;99.90;;;;;;5114619;27;20126;-69
2022/08/25 01:19:32;;;;;;;5.40;3.40;;;20.50;99.90;;;;;;5113100;27;20084;-68
2022/08/25 01:21:58;;;;;;;5.13;3.45;;;20.40;99.90;;;;;;5118032;27;20515;-67
2022/08/25 01:24:41;;;;;;;4.72;3.28;;;20.40;99.90;;;;;;5115512;27;20395;-68
2022/08/25 01:27:07;;;;;;;8.43;3.67;;;20.40;99.90;;;;;;5115820;27;20187;-68
2022/08/25 01:29:34;;;;;;;7.45;3.53;;;20.40;99.90;;;;;;5114141;27;20045;-69
2022/08/25 01:32:07;;;;;;;4.90;3.30;;;20.40;99.90;;;;;;5118959;27;20111;-68
2022/08/25 01:34:36;;;;;;;7.78;3.30;;;20.40;99.90;;;;;;5114438;27;20047;-68
2022/08/25 01:37:03;;;;;;;4.93;3.13;;;20.40;99.90;;;;;;5113114;27;20393;-70
2022/08/25 01:39:32;;;;;;;3.83;3.10;;;20.40;99.90;;;;;;5116665;27;20126;-67
2022/08/25 01:42:10;;;;;;;7.43;2.95;;;20.40;99.90;;;;;;5096442;28;20089;-70
2022/08/25 01:44:39;;;;;;;5.40;3.08;;;20.40;99.90;;;;;;5113697;27;20052;-69
2022/08/25 01:47:06;;;;;;;4.63;2.75;;;20.40;99.90;;;;;;5130011;27;20465;-69
2022/08/25 01:49:32;;;;;;;3.15;2.70;;;20.40;99.90;;;;;;5131028;27;20039;-69
2022/08/25 01:52:19;;;;;;;6.53;2.72;;;20.40;99.90;;;;;;5112834;27;20047;-69
2022/08/25 01:54:44;;;;;;;5.18;2.70;;;20.40;99.90;;;;;;5118770;27;20046;-68
2022/08/25 01:57:10;;;;;;;5.05;2.90;;;20.40;99.90;;;;;;5115693;27;20047;-67
2022/08/25 01:59:36;;;;;;;6.38;3.40;;;20.40;99.90;;;;;;5112154;27;20043;-68
2022/08/25 02:02:04;;;;;;;8.02;3.60;;;20.30;99.90;;;;;;5109488;28;20108;-68
2022/08/25 02:04:31;;;;;;;5.13;2.90;;;20.30;99.90;;;;;;5094955;28;20047;-68
2022/08/25 02:06:58;;;;;;;5.28;2.90;;;20.30;99.90;;;;;;5111766;27;20092;-70
2022/08/25 02:09:24;;;;;;;7.28;2.78;;;20.30;99.90;;;;;;5122590;27;20482;-67
2022/08/25 02:11:49;;;;;;;4.82;2.55;;;20.30;99.90;;;;;;5126360;27;20031;-67
2022/08/25 02:14:17;;;;;;;4.53;2.60;;;20.30;99.90;;;;;;5110021;28;20122;-67
2022/08/25 02:16:47;;;;;;;6.13;2.75;;;20.20;99.90;;;;;;5110902;27;20071;-66
2022/08/25 02:19:14;;;;;;;7.15;2.50;;;20.20;99.90;;;;;;5099216;28;20486;-68
2022/08/25 02:21:40;;;;;;;6.32;3.00;;;20.20;99.90;;;;;;5111157;27;20040;-69
2022/08/25 02:24:06;;;;;;;3.72;2.88;;;20.20;99.90;;;;;;5117778;27;20043;-66
2022/08/25 02:26:35;;;;;;;3.78;3.03;;;20.20;99.90;;;;;;5117601;27;20063;-67
2022/08/25 02:29:01;;;;;;;4.75;2.88;;;20.20;99.90;;;;;;5111507;28;20067;-69
2022/08/25 02:31:27;;;;;;;4.47;2.80;;;20.10;99.90;;;;;;5113782;27;20085;-67
2022/08/25 02:33:54;;;;;;;6.38;2.88;;;20.20;99.90;;;;;;5120387;27;20142;-69
2022/08/25 02:36:20;;;;;;;5.90;2.65;;;20.10;99.90;;;;;;5117605;27;20042;-68
2022/08/25 02:38:46;;;;;;;4.35;2.78;;;20.20;99.90;;;;;;5111697;28;20127;-67
2022/08/25 02:41:22;;;;;;;4.82;2.90;;;20.10;99.90;;;;;;5131395;27;20130;-67
2022/08/25 02:43:49;;;;;;;4.72;2.60;;;20.10;99.90;;;;;;5110725;28;20040;-69
2022/08/25 02:46:17;;;;;;;6.55;3.00;;;20.10;99.90;;;;;;5131460;27;20053;-66
2022/08/25 02:48:44;;;;;;;4.95;2.40;;;20.10;99.90;;;;;;5109905;27;20116;-68
2022/08/25 02:51:10;;;;;;;4.55;2.97;;;20.00;99.90;;;;;;5109278;28;20062;-68
2022/08/25 02:53:38;;;;;;;6.22;3.10;;;20.00;99.90;;;;;;5110315;27;20039;-69
2022/08/25 02:56:06;;;;;;;6.18;2.70;;;20.00;99.90;;;;;;5125429;27;20067;-69
2022/08/25 02:58:32;;;;;;;4.68;2.80;;;20.00;99.90;;;;;;5116551;27;20051;-68
2022/08/25 03:00:57;;;;;;;4.38;2.67;;;20.00;99.90;;;;;;5119734;27;20046;-68
2022/08/25 03:03:23;;;;;;;5.57;3.00;;;20.00;99.90;;;;;;5114016;27;20048;-70
2022/08/25 03:05:48;;;;;;;5.82;2.70;;;20.00;99.90;;;;;;5113888;27;20051;-66
2022/08/25 03:08:14;;;;;;;4.13;2.75;;;19.90;99.90;;;;;;5112368;27;20043;-69
2022/08/25 03:10:40;;;;;;;4.60;2.80;;;20.00;99.90;;;;;;5102710;28;20104;-70
2022/08/25 03:13:06;;;;;;;5.80;2.92;;;19.90;99.90;;;;;;5113422;27;20032;-68
2022/08/25 03:15:32;;;;;;;4.57;3.00;;;19.90;99.90;;;;;;5130817;27;20051;-65
2022/08/25 03:17:57;;;;;;;6.75;3.13;;;19.90;99.90;;;;;;5116545;27;20047;-70
2022/08/25 03:20:24;;;;;;;5.85;2.47;;;19.90;99.90;;;;;;5108532;28;20059;-68
2022/08/25 03:22:50;;;;;;;5.05;2.80;;;19.90;99.90;;;;;;5107709;28;20083;-68
2022/08/25 03:28:01;;;;;;;5.45;2.78;;;19.80;99.90;;;;;;5115199;27;20036;-68
2022/08/25 03:30:27;;;;;;;6.80;2.63;;;19.80;99.90;;;;;;5113305;27;20042;-67
2022/08/25 03:32:53;;;;;;;4.68;3.13;;;19.80;99.90;;;;;;5109340;28;20036;-66
2022/08/25 03:35:18;;;;;;;9.20;2.88;;;19.80;99.90;;;;;;5112078;27;20118;-66
2022/08/25 03:37:44;;;;;;;5.68;2.83;;;19.80;99.90;;;;;;5110417;27;20513;-69
2022/08/25 03:40:13;;;;;;;7.13;3.20;;;19.70;99.90;;;;;;5109112;28;20100;-69
2022/08/25 03:42:41;;;;;;;5.47;2.90;;;19.70;99.90;;;;;;5118243;27;20047;-69
2022/08/25 03:45:07;;;;;;;6.00;2.90;;;19.70;99.90;;;;;;5125831;27;20477;-67
2022/08/25 03:47:33;;;;;;;5.32;2.92;;;19.70;99.90;;;;;;5106640;28;20043;-68
2022/08/25 03:49:59;;;;;;;4.88;2.75;;;19.60;99.90;;;;;;5108026;27;20045;-68
2022/08/25 03:52:25;;;;;;;6.80;3.00;;;19.60;99.90;;;;;;5109565;28;20027;-68
2022/08/25 03:54:51;;;;;;;3.60;2.65;;;19.60;99.90;;;;;;5107653;28;20044;-67
2022/08/25 03:57:16;;;;;;;8.52;2.60;;;19.60;99.90;;;;;;5109364;28;20085;-68
2022/08/25 03:59:42;;;;;;;5.43;2.90;;;19.60;99.90;;;;;;5128056;27;20126;-69
2022/08/25 04:02:08;;;;;;;5.07;3.10;;;19.60;99.90;;;;;;5109675;28;20389;-69
2022/08/25 04:04:34;;;;;;;4.32;2.88;;;19.60;99.90;;;;;;5109903;28;20063;-67
2022/08/25 04:06:59;;;;;;;5.05;2.72;;;19.50;99.90;;;;;;5108441;28;20047;-70
2022/08/25 04:09:25;;;;;;;5.30;2.85;;;19.50;99.90;;;;;;5109656;28;20031;-68
2022/08/25 04:11:51;;;;;;;4.40;2.95;;;19.50;99.90;;;;;;5107049;27;20051;-68
2022/08/25 04:14:17;;;;;;;6.28;3.15;;;19.40;99.90;;;;;;5110583;28;20040;-69
2022/08/25 04:16:44;;;;;;;4.80;3.25;;;19.40;99.90;;;;;;5113933;27;20027;-68
2022/08/25 04:19:10;;;;;;;5.65;3.00;;;19.40;99.90;;;;;;5107592;27;20079;-66
2022/08/25 04:21:37;;;;;;;4.85;2.80;;;19.40;99.90;;;;;;5118775;27;20097;-66
2022/08/25 04:24:04;;;;;;;5.82;2.97;;;19.30;99.90;;;;;;5110545;27;20036;-68
2022/08/25 04:26:36;;;;;;;6.15;2.67;;;19.30;99.90;;;;;;5109075;28;20582;-68
2022/08/25 04:29:04;;;;;;;3.90;2.80;;;19.30;99.90;;;;;;5107530;28;20032;-69
2022/08/25 04:31:31;;;;;;;5.97;2.92;;;19.30;99.90;;;;;;5123637;27;20069;-67
2022/08/25 04:33:57;;;;;;;5.13;3.20;;;19.30;99.90;;;;;;5107909;28;20046;-67
2022/08/25 04:36:23;;;;;;;6.32;3.10;;;19.30;99.90;;;;;;5125653;27;20038;-68
2022/08/25 04:38:49;;;;;;;4.93;3.13;;;19.20;99.90;;;;;;5109092;28;20075;-69
2022/08/25 04:41:18;;;;;;;3.88;2.88;;;19.20;99.90;;;;;;5115355;27;20462;-71
2022/08/25 04:43:44;;;;;;;5.85;3.20;;;19.20;99.90;;;;;;5091778;28;20532;-70
2022/08/25 04:46:19;;;;;;;6.05;3.28;;;19.20;99.90;;;;;;5107958;28;20040;-65
2022/08/25 04:48:45;;;;;;;7.57;3.00;;;19.20;99.90;;;;;;5111139;28;20038;-68
2022/08/25 04:51:15;;;;;;;4.80;3.20;;;19.20;99.90;;;;;;5107633;28;20397;-68
2022/08/25 04:53:42;;;;;;;4.93;3.08;;;19.20;99.90;;;;;;5111826;28;20043;-65
2022/08/25 04:56:10;;;;;;;6.55;3.10;;;19.20;99.90;;;;;;5091935;28;21592;-69
2022/08/25 04:58:36;;;;;;;4.18;3.00;;;19.20;99.90;;;;;;5109715;28;20035;-67
2022/08/25 05:01:14;;;;;;;6.13;3.33;;;19.20;99.90;;;;;;5104425;28;20077;-69
2022/08/25 05:03:41;;;;;;;6.80;2.90;;;19.20;99.90;;;;;;5115077;28;20027;-67
2022/08/25 05:06:07;;;;;;;6.43;3.63;;;19.20;99.90;;;;;;5109789;28;20505;-69
2022/08/25 05:08:33;;;;;;;8.18;3.10;;;19.30;99.90;;;;;;5107404;28;20047;-67
2022/08/25 05:11:05;;;;;;;6.63;3.20;;;19.30;99.90;;;;;;5115557;28;20036;-66
2022/08/25 05:13:31;;;;;;;5.45;2.88;;;19.30;99.90;;;;;;5108488;28;20060;-66
2022/08/25 05:15:59;;;;;;;6.93;2.75;;;19.30;99.90;;;;;;5103835;28;20104;-69
2022/08/25 05:18:26;;;;;;;4.82;3.10;;;19.30;99.90;;;;;;5113554;28;20070;-68
2022/08/25 05:20:53;;;;;;;4.03;3.08;;;19.30;99.90;;;;;;5104795;28;20051;-66
2022/08/25 05:23:20;;;;;;;7.53;3.17;;;19.40;99.90;;;;;;5110014;28;20117;-68
2022/08/25 05:25:47;;;;;;;3.72;2.75;;;19.40;99.90;;;;;;5107245;28;20050;-68
2022/08/25 05:28:13;;;;;;;5.13;3.00;;;19.40;99.90;;;;;;5107697;28;20036;-67
2022/08/25 05:30:41;;;;;;;7.07;3.17;;;19.50;99.90;;;;;;5110006;28;20063;-71
2022/08/25 05:33:07;;;;;;;7.70;3.10;;;19.50;99.90;;;;;;5117830;27;20047;-70
2022/08/25 05:35:33;;;;;;;3.70;3.03;;;19.50;99.90;;;;;;5133119;27;20478;-70
2022/08/25 05:37:59;;;;;;;5.78;3.17;;;19.60;99.90;;;;;;5116987;27;20036;-68
2022/08/25 05:40:24;;;;;;;6.68;3.15;;;19.60;99.90;;;;;;5110622;27;20047;-66
2022/08/25 05:42:50;;;;;;;5.72;2.90;;;19.60;99.90;;;;;;5113940;27;20100;-67
2022/08/25 05:45:16;;;;;;;8.05;2.90;;;19.70;99.90;;;;;;5111516;27;20043;-69
2022/08/25 05:47:43;;;;;;;7.00;2.97;;;19.70;99.90;;;;;;5117863;27;20134;-69
2022/08/25 05:50:09;;;;;;;4.68;2.70;;;19.80;99.90;;;;;;5120444;27;20040;-71
2022/08/25 05:52:35;;;;;;;7.75;3.00;;;19.90;99.90;;;;;;5117381;27;20535;-70
2022/08/25 05:55:01;;;;;;;5.90;3.10;;;19.90;99.90;;;;;;5111704;27;20040;-67
2022/08/25 05:57:26;;;;;;;6.05;3.10;;;20.00;99.90;;;;;;5114083;27;20097;-67
2022/08/25 05:59:52;;;;;;;8.27;3.10;;;20.00;99.90;;;;;;5123662;27;20035;-67
2022/08/25 06:05:02;;;;;;;4.78;3.05;;;20.10;99.90;;;;;;5111629;28;20471;-70
2022/08/25 06:07:28;;;;;;;5.45;3.10;;;20.20;99.90;;;;;;5117883;27;20118;-66
2022/08/25 06:09:54;;;;;;;7.25;3.60;;;20.30;99.90;;;;;;5117003;27;20432;-67
2022/08/25 06:12:20;;;;;;;6.05;3.00;;;20.40;99.90;;;;;;5109540;28;20040;-70
2022/08/25 06:14:47;;;;;;;8.48;3.17;;;20.40;99.90;;;;;;5107236;28;20055;-69
2022/08/25 06:17:13;;;;;;;8.30;3.30;;;20.50;99.90;;;;;;5114355;27;20405;-69
2022/08/25 06:19:39;;;;;;;7.45;3.33;;;20.60;99.90;;;;;;5131066;27;20130;-68
2022/08/25 06:22:05;;;;;;;6.13;3.30;;;20.70;99.90;;;;;;5131299;27;20118;-69
2022/08/25 06:24:31;;;;;;;7.65;3.50;;;20.80;99.90;;;;;;5128210;27;20051;-68
2022/08/25 06:26:57;;;;;;;5.78;3.10;;;20.80;99.90;;;;;;5119617;27;20047;-66
2022/08/25 06:29:23;;;;;;;6.93;3.20;;;20.90;99.90;;;;;;5112947;28;20485;-69
2022/08/25 06:31:49;;;;;;;4.45;2.80;;;21.10;99.90;;;;;;5125144;27;20036;-68
2022/08/25 06:34:15;;;;;;;6.63;3.38;;;21.20;99.90;;;;;;5116383;27;20046;-68
2022/08/25 06:36:41;;;;;;;5.78;3.40;;;21.30;99.90;;;;;;5111110;27;20536;-68
2022/08/25 06:39:08;;;;;;;5.00;3.00;;;21.40;99.90;;;;;;5111064;27;20043;-69
2022/08/25 06:41:35;;;;;;;4.47;3.08;;;21.60;99.90;;;;;;5111544;28;20084;-66
2022/08/25 06:44:00;;;;;;;8.15;3.30;;;21.70;99.90;;;;;;5130319;27;20106;-68
2022/08/25 06:46:26;;;;;;;8.02;3.08;;;21.80;99.90;;;;;;5122439;27;20513;-68
2022/08/25 06:48:56;;;;;;;5.13;3.17;;;21.90;99.90;;;;;;5105816;27;20569;-68
2022/08/25 06:51:25;;;;;;;5.65;3.22;;;22.00;99.90;;;;;;5115946;27;20036;-68
2022/08/25 06:53:51;;;;;;;6.70;3.22;;;22.20;99.90;;;;;;5126024;27;20047;-70
2022/08/25 06:56:19;;;;;;;9.00;3.08;;;22.30;99.90;;;;;;5131659;27;20373;-70
2022/08/25 06:58:44;;;;;;;5.43;3.05;;;22.40;99.90;;;;;;5126595;27;20115;-70
2022/08/25 07:01:14;;;;;;;6.03;3.47;;;22.60;99.90;;;;;;5130267;27;20114;-67
2022/08/25 07:03:40;;;;;;;4.32;3.38;;;22.70;99.90;;;;;;5109099;28;20039;-69
2022/08/25 07:06:07;;;;;;;5.65;3.20;;;22.80;99.90;;;;;;5113962;27;20032;-68
2022/08/25 07:08:34;;;;;;;7.15;3.25;;;22.90;99.90;;;;;;5095137;28;20031;-67
2022/08/25 07:11:05;;;;;;;5.90;3.40;;;23.00;99.90;;;;;;5129939;27;20119;-68
2022/08/25 07:13:30;;;;;;;8.80;3.58;;;23.20;99.90;;;;;;5099266;28;20054;-67
2022/08/25 07:15:56;;;;;;;5.80;3.03;;;23.20;99.90;;;;;;5129249;27;20031;-70
2022/08/25 07:18:22;;;;;;;5.40;3.28;;;23.40;99.90;;;;;;5128397;27;20130;-69
2022/08/25 07:20:47;;;;;;;7.10;3.40;;;23.50;99.90;;;;;;5102439;28;20135;-68
2022/08/25 07:23:13;;;;;;;5.32;3.00;;;23.60;99.80;;;;;;5105814;28;20051;-69
2022/08/25 07:25:39;;;;;;;6.47;3.10;;;23.70;99.70;;;;;;5109513;28;20165;-67
2022/08/25 07:28:04;;;;;;;6.82;2.92;;;23.90;99.80;;;;;;5121325;27;20035;-66
2022/08/25 07:30:30;;;;;;;5.75;3.10;;;24.00;99.60;;;;;;5130239;27;20446;-67
2022/08/25 07:32:56;;;;;;;6.00;2.97;;;24.20;99.50;;;;;;5116882;27;20031;-66
2022/08/25 07:35:24;;;;;;;7.97;3.50;;;24.30;99.30;;;;;;5130036;27;20055;-68
2022/08/25 07:37:55;;;;;;;8.05;3.20;;;24.50;99.20;;;;;;5131047;27;20031;-70
2022/08/25 07:40:27;;;;;;;5.65;3.15;;;24.60;99.10;;;;;;5092708;28;20058;-69
2022/08/25 07:42:56;;;;;;;4.57;2.97;;;24.80;99.10;;;;;;5111350;28;20493;-67
2022/08/25 07:45:29;;;;;;;8.85;3.15;;;24.90;98.80;;;;;;5129391;27;20591;-68
2022/08/25 07:47:59;;;;;;;7.97;2.78;;;25.00;98.40;;;;;;5130660;27;20035;-67
2022/08/25 07:50:26;;;;;;;5.82;2.88;;;25.10;98.40;;;;;;5119744;27;20028;-68
2022/08/25 07:52:53;;;;;;;6.20;2.90;;;25.10;98.20;;;;;;5110602;27;20063;-69
2022/08/25 07:55:19;;;;;;;7.07;3.22;;;25.20;98.00;;;;;;5129413;27;20042;-68
2022/08/25 07:57:46;;;;;;;8.80;3.08;;;25.20;98.10;;;;;;5121985;27;20042;-67
2022/08/25 08:00:13;;;;;;;6.20;3.00;;;25.30;97.90;;;;;;5112367;27;20064;-67
2022/08/25 08:02:40;;;;;;;5.20;2.70;;;25.40;97.80;;;;;;5108937;27;20043;-69
2022/08/25 08:05:07;;;;;;;5.38;2.78;;;25.40;97.60;;;;;;5127237;27;20466;-68
2022/08/25 08:07:32;;;;;;;5.93;3.00;;;25.50;97.60;;;;;;5106439;28;20075;-68
2022/08/25 08:09:58;;;;;;;5.30;2.60;;;25.60;97.60;;;;;;5122479;27;20072;-67
2022/08/25 08:12:25;;;;;;;5.28;3.15;;;25.70;97.60;;;;;;5092957;28;20047;-68
2022/08/25 08:14:52;;;;;;;3.28;2.60;;;25.80;97.30;;;;;;5113513;27;20142;-66
2022/08/25 08:17:18;;;;;;;6.82;2.85;;;25.90;97.10;;;;;;5110964;27;20096;-66
2022/08/25 08:19:44;;;;;;;6.32;3.10;;;26.00;97.10;;;;;;5110942;27;20500;-66
2022/08/25 08:22:10;;;;;;;6.53;2.92;;;26.10;97.00;;;;;;5112524;27;20435;-67
2022/08/25 08:24:38;;;;;;;8.52;2.80;;;26.20;96.80;;;;;;5111388;27;20044;-67
2022/08/25 08:27:07;;;;;;;5.95;3.00;;;26.30;96.50;;;;;;5111784;27;20070;-67
2022/08/25 08:29:34;;;;;;;5.72;2.70;;;26.40;96.70;;;;;;5124801;27;20047;-67
2022/08/25 08:32:02;;;;;;;4.45;2.65;;;26.70;97.00;;;;;;5118730;27;20114;-67
2022/08/25 08:34:28;;;;;;;8.05;2.65;;;26.80;96.60;;;;;;5092811;28;20048;-67
2022/08/25 08:36:55;;;;;;;7.47;2.67;;;26.90;96.10;;;;;;5124682;27;20071;-68
2022/08/25 08:39:20;;;;;;;3.40;2.60;;;27.00;96.10;;;;;;5130863;27;20502;-68
2022/08/25 08:44:45;;;;;;;4.78;2.50;;;27.10;96.00;;;;;;5071817;28;20044;-68
2022/08/25 08:47:34;;;;;;;7.07;2.75;;;27.30;95.90;;;;;;5071913;28;20040;-70
2022/08/25 08:50:15;;;;;;;8.88;2.60;;;27.50;95.60;;;;;;5071604;28;20166;-67
2022/08/25 08:53:05;;;;;;;5.78;2.60;;;27.60;95.20;;;;;;5071769;28;20051;-67
2022/08/25 08:55:34;;;;;;;7.53;2.65;;;27.70;95.50;;;;;;5071606;28;20048;-69
2022/08/25 08:58:08;;;;;;;7.28;2.80;;;27.80;94.90;;;;;;5071925;28;20094;-66
2022/08/25 09:00:39;;;;;;;7.45;2.38;;;27.90;94.70;;;;;;5071293;28;20051;-68
2022/08/25 09:03:15;;;;;;;7.15;2.70;;;28.10;94.70;;;;;;5071866;28;20526;-68
2022/08/25 09:05:49;;;;;;;7.78;2.60;;;28.20;94.90;;;;;;5071336;28;20044;-70
2022/08/25 09:08:16;;;;;;;5.68;2.28;;;28.30;94.20;;;;;;5074161;28;20438;-69
2022/08/25 09:11:11;;;;;;;5.28;2.70;;;28.50;94.30;;;;;;5075844;28;20522;-71
2022/08/25 09:14:03;;;;;;;5.88;2.17;;;28.70;94.00;;;;;;5075542;28;20122;-67
2022/08/25 09:16:56;;;;;;;4.47;2.40;;;28.90;93.60;;;;;;5075266;28;20079;-69
2022/08/25 09:19:49;;;;;;;5.93;2.40;;;29.00;93.30;;;;;;5075303;28;20121;-69
2022/08/25 09:22:44;;;;;;;6.47;2.30;;;29.10;93.20;;;;;;5108453;28;20082;-70
2022/08/25 09:25:37;;;;;;;2.50;2.22;;;29.30;93.40;;;;;;5107081;27;20055;-67
2022/08/25 09:28:03;;;;;;;10.50;2.47;;;29.60;93.60;;;;;;5121661;27;20385;-71
2022/08/25 09:30:41;;;;;;;7.80;2.38;;;29.70;92.20;;;;;;5113296;28;20110;-66
2022/08/25 09:33:09;;;;;;;6.38;2.22;;;29.80;92.50;;;;;;5114944;27;20036;-69
2022/08/25 09:35:39;;;;;;;5.53;2.35;;;29.80;92.00;;;;;;5121866;27;20046;-69
2022/08/25 09:38:08;;;;;;;5.38;2.20;;;30.00;91.70;;;;;;5123680;27;20043;-70
2022/08/25 09:40:43;;;;;;;4.40;2.33;;;30.10;91.20;;;;;;5096020;28;20108;-70
2022/08/25 09:43:30;;;;;;;6.22;2.20;;;30.20;91.10;;;;;;5127955;27;20048;-69
2022/08/25 09:46:34;;;;;;;6.80;2.58;;;30.30;91.10;;;;;;5098147;27;20472;-68
2022/08/25 09:49:14;;;;;;;4.22;2.10;;;30.50;91.40;;;;;;5034979;28;20044;-69
2022/08/25 09:51:39;;;;;;;6.80;2.35;;;30.60;90.70;;;;;;5016874;28;20411;-67
2022/08/25 09:54:14;;;;;;;9.43;2.65;;;30.80;90.20;;;;;;5002020;28;20049;-66
2022/08/25 09:56:58;;;;;;;5.70;2.28;;;30.80;90.00;;;;;;5017983;28;20058;-69
2022/08/25 09:59:25;;;;;;;4.47;2.25;;;30.90;88.90;;;;;;5047404;28;20080;-69
2022/08/25 10:01:56;;;;;;;7.30;2.53;;;30.90;89.00;;;;;;5016602;28;20053;-67
2022/08/25 10:04:38;;;;;;;4.50;2.30;;;30.90;89.10;;;;;;5031390;28;20063;-69
2022/08/25 10:07:17;;;;;;;;;;;31.00;88.40;;;;;;5015394;28;20116;-67
2022/08/25 10:09:52;;;;;;;6.10;2.67;;;31.20;89.50;;;;;;5014482;28;19924;-70
2022/08/25 10:12:31;;;;;;;5.25;2.83;;;31.20;87.30;;;;;;5045937;28;20045;-71
2022/08/25 10:14:57;;;;;;;5.25;2.38;;;31.30;87.20;;;;;;5033173;28;20580;-67
2022/08/25 10:17:27;;;;;;;3.15;2.15;;;31.50;87.20;;;;;;5027788;28;20081;-70
2022/08/25 10:20:15;;;;;;;8.40;2.95;;;31.60;86.80;;;;;;5015132;28;20056;-67
2022/08/25 10:22:43;;;;;;;3.97;2.53;;;31.70;85.80;;;;;;5009113;28;20051;-70
2022/08/25 10:25:12;;;;;;;4.38;2.40;;;31.80;85.60;;;;;;5091229;28;20048;-69
2022/08/25 10:28:08;;;;;;;6.50;2.40;;;32.00;85.50;;;;;;5090942;28;20059;-70
2022/08/25 10:30:56;;;;;;;5.60;2.28;;;32.10;84.60;;;;;;5074373;28;20505;-69
2022/08/25 10:33:50;;;;;;;7.43;2.45;;;32.20;84.70;;;;;;5048176;28;20057;-70
2022/08/25 10:36:22;;;;;;;4.65;2.50;;;32.20;83.80;;;;;;5059178;28;20044;-68
2022/08/25 10:38:59;;;;;;;4.45;2.15;;;32.20;82.40;;;;;;5057693;28;20076;-69
2022/08/25 10:41:25;;;;;;;3.95;2.13;;;32.30;82.70;;;;;;5070490;28;20052;-69
2022/08/25 10:44:06;;;;;;;5.75;2.63;;;32.60;83.20;;;;;;5063233;28;20514;-70
2022/08/25 10:46:51;;;;;;;4.80;2.25;;;32.60;82.50;;;;;;5073794;28;20125;-69
2022/08/25 10:49:33;;;;;;;4.95;2.70;;;32.70;81.90;;;;;;5086127;28;20037;-68
2022/08/25 10:51:58;;;;;;;;;;;32.80;82.10;;;;;;5053973;28;20048;-70
2022/08/25 10:54:51;;;;;;;6.45;2.50;;;32.90;82.40;;;;;;5058242;28;19919;-69
2022/08/25 10:57:31;;;;;;;5.45;2.40;;;33.00;81.10;;;;;;5066401;28;20036;-69
2022/08/25 11:00:05;;;;;;;3.28;2.47;;;33.00;80.20;;;;;;5105458;27;20043;-70
2022/08/25 11:02:56;;;;;;;5.20;2.75;;;32.90;79.80;;;;;;5132116;27;20035;-69
2022/08/25 11:05:26;;;;;;;5.47;2.75;;;33.00;80.80;;;;;;5127184;27;20035;-69
2022/08/25 11:08:07;;;;;;;5.20;2.30;;;32.90;79.80;;;;;;5111747;28;20482;-67
2022/08/25 11:10:43;;;;;;;3.67;2.65;;;32.90;79.20;;;;;;5113066;28;20066;-66
2022/08/25 11:13:22;;;;;;;4.43;2.28;;;32.90;80.80;;;;;;5129869;27;20046;-68
2022/08/25 11:15:50;;;;;;;4.50;2.28;;;32.90;78.30;;;;;;5132262;27;20084;-70
2022/08/25 11:18:16;;;;;;;4.75;2.63;;;33.00;79.20;;;;;;5123410;27;20058;-68
2022/08/25 11:21:10;;;;;;;4.90;2.30;;;33.00;78.60;;;;;;5114454;27;20047;-69
2022/08/25 11:23:58;;;;;;;3.55;2.10;;;33.00;78.60;;;;;;5129217;27;20100;-69
2022/08/25 11:26:32;;;;;;;6.13;2.13;;;33.10;76.70;;;;;;5131862;27;20043;-69
2022/08/25 11:29:15;;;;;;;4.82;2.50;;;33.10;77.60;;;;;;5131723;27;20042;-71
2022/08/25 11:31:52;;;;;;;3.08;2.15;;;33.10;75.30;;;;;;5130636;27;20045;-68
2022/08/25 11:34:19;;;;;;;3.47;2.00;;;33.00;73.50;;;;;;5106159;27;20103;-67
2022/08/25 11:36:59;;;;;;;5.82;2.03;;;32.70;73.30;;;;;;5131615;27;20126;-68
2022/08/25 11:39:53;;;;;;;7.78;2.20;;;32.70;73.50;;;;;;5131624;27;20055;-68
2022/08/25 11:42:46;;;;;;;5.55;2.00;;;32.60;72.50;;;;;;5131138;27;20176;-68
2022/08/25 11:45:27;;;;;;;2.38;2.13;;;32.50;73.30;;;;;;5131184;27;20051;-69
2022/08/25 11:48:03;;;;;;;7.38;2.25;;;32.50;72.60;;;;;;5131712;27;20393;-69
2022/08/25 11:50:54;;;;;;;4.32;2.03;;;32.60;71.50;;;;;;5114055;27;20118;-69
2022/08/25 11:53:32;;;;;;;2.90;1.90;;;32.40;70.50;;;;;;5103793;28;20054;-71
2022/08/25 11:56:03;;;;;;;5.68;2.10;;;32.30;70.80;;;;;;5127864;27;20046;-71
2022/08/25 11:58:36;;;;;;;2.33;2.05;;;32.30;70.70;;;;;;5131120;27;20123;-69
2022/08/25 12:01:03;;;;;;;4.28;1.88;;;32.20;71.50;;;;;;5130860;27;20437;-67
2022/08/25 12:03:35;;;;;;;3.08;1.58;;;32.30;71.90;;;;;;5113948;27;20118;-67
2022/08/25 12:06:18;;;;;;;3.38;1.83;;;32.10;69.60;;;;;;5131042;27;20035;-68
2022/08/25 12:08:49;;;;;;;3.05;1.73;;;32.20;70.00;;;;;;5131228;27;20435;-69
2022/08/25 12:11:37;;;;;;;3.58;2.25;;;32.10;70.10;;;;;;5111783;27;20031;-72
2022/08/25 12:14:21;;;;;;;4.32;2.03;;;32.10;69.90;;;;;;5117770;27;20110;-68
2022/08/25 12:16:50;;;;;;;3.05;2.10;;;32.00;70.70;;;;;;5125077;27;20065;-69
2022/08/25 12:19:34;;;;;;;5.25;2.15;;;31.80;68.80;;;;;;5110723;27;20147;-69
2022/08/25 12:22:02;;;;;;;3.50;1.92;;;31.70;70.20;;;;;;5124505;27;20037;-68
2022/08/25 12:24:46;;;;;;;4.40;1.85;;;31.70;69.80;;;;;;5109959;28;20042;-69
2022/08/25 12:27:42;;;;;;;6.88;1.83;;;31.80;70.90;;;;;;5128231;27;20027;-69
2022/08/25 12:30:39;;;;;;;5.88;1.83;;;31.80;70.90;;;;;;5130501;27;20044;-69
2022/08/25 12:33:05;;;;;;;4.00;1.98;;;31.80;70.20;;;;;;5129407;27;20425;-70
2022/08/25 12:36:01;;;;;;;10.45;2.28;;;31.70;70.30;;;;;;5121977;27;20392;-69
2022/08/25 12:38:48;;;;;;;3.03;2.10;;;31.70;70.10;;;;;;5129176;27;20115;-67
2022/08/25 12:41:18;;;;;;;2.92;2.33;;;31.60;70.20;;;;;;5127925;27;20119;-67
2022/08/25 12:43:47;;;;;;;4.90;1.90;;;31.50;69.50;;;;;;5118520;27;20047;-69
2022/08/25 12:46:21;;;;;;;4.45;1.88;;;31.50;69.70;;;;;;5127369;27;20088;-68
2022/08/25 12:49:24;;;;;;;38.72;4.72;;;31.40;68.70;;;;;;5130361;28;20108;-67
2022/08/25 12:52:09;;;;;;;3.78;1.80;;;31.30;68.50;;;;;;5118289;28;20509;-70
2022/08/25 12:54:35;;;;;;;2.53;1.48;;;31.20;68.50;;;;;;5094641;28;20031;-69
2022/08/25 12:57:19;;;;;;;5.05;1.60;;;31.20;67.80;;;;;;5130408;28;20080;-70
2022/08/25 12:59:50;;;;;;;2.10;1.70;;;31.10;67.30;;;;;;5130623;27;20478;-69
2022/08/25 13:02:54;;;;;;;2.70;1.48;;;31.10;67.10;;;;;;5130157;28;20043;-66
2022/08/25 13:05:28;;;;;;;2.85;1.50;;;31.00;67.20;;;;;;5056597;28;20052;-69
2022/08/25 13:08:18;;;;;;;3.42;1.58;;;31.00;67.20;;;;;;5071623;28;20067;-67
2022/08/25 13:11:13;;;;;;;2.38;1.33;;;31.00;65.90;;;;;;5071474;28;20040;-70
2022/08/25 13:14:10;;;;;;;3.42;1.60;;;31.00;65.70;;;;;;5057457;28;20054;-66
2022/08/25 13:16:36;;;;;;;2.80;1.30;;;30.80;65.40;;;;;;5065667;28;20056;-72